Everdell, Minnesota
Current Conditions -  °F | °C
As of 4:55 AM on Wednesday 22 Oct 2014 (Local Time) from KBWP Reporting Station
Clear Clear  
Wind Chill: 50°   Ceiling: Unl
Heat Index: 50°   Visibility: 10mi
Dew Point: 37°   Wind: 21mph
Humidity: 62%   Direction: 150°SSE
Pressure: 29.91"   Gusts: 29mph
Location:  46.3422°N, 96.4653°W
Report Text: KBWP 220955Z AUTO 15018G25KT 10SM CLR 10/03 A2991 RMK AO1
Loading
Personal Weather Stations






























Interactive Weather Map
Tropical Storm Tracking
New forecast layout! Learn more

10-Day Weather Forecast

Advertisements
Track Severe Weather on mobile